createdAt,value
2019-01-21T00:02:47.511Z,29
2019-01-21T00:12:53.824Z,22
2019-01-21T00:23:00.542Z,23
2019-01-21T00:33:07.727Z,23
2019-01-21T00:43:16.201Z,19
2019-01-21T00:53:22.614Z,17
2019-01-21T01:03:30.453Z,22
2019-01-21T01:13:38.224Z,16
2019-01-21T01:23:44.227Z,19
2019-01-21T01:33:52.743Z,17
2019-01-21T01:35:15.680Z,21
2019-01-21T01:45:24.548Z,20
2019-01-21T01:55:30.383Z,18
2019-01-21T02:05:39.446Z,16
2019-01-21T02:15:46.334Z,17
2019-01-21T02:25:54.054Z,15
2019-01-21T02:36:00.520Z,16
2019-01-21T02:46:08.104Z,19
2019-01-21T02:56:15.880Z,18
2019-01-21T03:06:25.428Z,24
2019-01-21T03:16:33.839Z,14
2019-01-21T03:18:49.068Z,14
2019-01-21T03:28:54.609Z,14
2019-01-21T03:39:02.414Z,15
2019-01-21T03:49:10.535Z,18
2019-01-21T03:59:18.490Z,17
2019-01-21T04:09:26.361Z,19
2019-01-21T04:19:34.785Z,19
2019-01-21T04:29:42.306Z,23
2019-01-21T04:39:49.172Z,25
2019-01-21T04:49:08.632Z,21
2019-01-21T04:59:17.867Z,19
2019-01-21T05:09:22.258Z,19
2019-01-21T05:19:31.201Z,20
2019-01-21T05:29:37.448Z,19
2019-01-21T05:39:45.224Z,19
2019-01-21T05:49:54.715Z,20
2019-01-21T06:00:02.209Z,23
2019-01-21T06:10:07.300Z,24
2019-01-21T06:20:13.792Z,21
2019-01-21T06:30:22.341Z,23
2019-01-21T06:40:27.820Z,22
2019-01-21T06:50:41.207Z,22
2019-01-21T07:00:51.820Z,27
2019-01-21T07:08:07.622Z,23
2019-01-21T07:13:21.525Z,27
2019-01-21T07:14:34.480Z,28
2019-01-21T07:19:50.712Z,22
2019-01-21T07:29:57.427Z,14
2019-01-21T07:40:21.428Z,15
2019-01-21T07:50:24.732Z,18
2019-01-21T08:00:31.944Z,16
2019-01-21T08:03:28.870Z,18
2019-01-21T08:08:30.712Z,18
2019-01-21T08:18:40.791Z,17
2019-01-21T08:28:48.054Z,20
2019-01-21T08:39:08.513Z,21
2019-01-21T08:48:40.647Z,22
2019-01-21T08:58:47.027Z,29
2019-01-21T09:08:56.153Z,35
2019-01-21T09:19:01.757Z,34
2019-01-21T09:20:15.836Z,32
2019-01-21T09:30:24.396Z,29
2019-01-21T09:37:40.915Z,31
2019-01-21T09:47:49.350Z,31
2019-01-21T09:57:59.768Z,31
2019-01-21T10:01:17.975Z,31
2019-01-21T10:11:20.675Z,30
2019-01-21T10:21:29.063Z,33
2019-01-21T10:31:37.559Z,34
2019-01-21T10:41:45.179Z,31
2019-01-21T10:47:02.073Z,36
2019-01-21T10:57:09.004Z,34
2019-01-21T11:07:20.899Z,35
2019-01-21T11:12:36.305Z,38
2019-01-21T11:22:42.580Z,42
2019-01-21T11:25:02.272Z,39
2019-01-21T11:25:48.716Z,37
2019-01-21T11:36:01.213Z,34
2019-01-21T11:46:08.886Z,34
2019-01-21T11:51:28.939Z,49
2019-01-21T11:56:43.729Z,36
2019-01-21T12:06:45.357Z,36
2019-01-21T12:16:53.401Z,37
2019-01-21T12:27:00.840Z,35
2019-01-21T12:37:07.570Z,37
2019-01-21T12:47:16.501Z,41
2019-01-21T12:57:23.185Z,36
2019-01-21T13:06:44.286Z,37
2019-01-21T13:16:52.668Z,37
2019-01-21T13:21:07.911Z,38
2019-01-21T13:31:18.193Z,36
2019-01-21T13:32:27.619Z,38
2019-01-21T13:42:36.174Z,38
2019-01-21T13:52:44.966Z,37
2019-01-21T13:58:02.455Z,36
2019-01-21T14:08:09.323Z,36
2019-01-21T14:18:15.689Z,40
2019-01-21T14:24:48.636Z,47
2019-01-21T14:35:08.428Z,41
2019-01-21T14:45:13.947Z,41
2019-01-21T14:51:32.632Z,49
2019-01-21T15:01:44.230Z,40
2019-01-21T15:07:01.252Z,39
2019-01-21T15:10:14.422Z,41
2019-01-21T15:20:20.731Z,35
2019-01-21T15:26:41.633Z,36
2019-01-21T15:36:47.755Z,41
2019-01-21T15:40:05.767Z,35
2019-01-21T15:43:31.703Z,36
2019-01-21T15:53:39.148Z,45
2019-01-21T15:58:57.062Z,48
2019-01-21T16:09:04.346Z,48
2019-01-21T16:11:19.143Z,46
2019-01-21T16:21:27.985Z,53
2019-01-21T16:31:34.900Z,55
2019-01-21T16:41:42.567Z,54
2019-01-21T16:51:54.239Z,54
2019-01-21T17:02:01.521Z,67
2019-01-21T17:12:13.363Z,55
2019-01-21T17:22:20.038Z,60
2019-01-21T17:32:26.369Z,56
2019-01-21T17:42:33.754Z,50
2019-01-21T17:52:41.489Z,63
2019-01-21T18:02:48.628Z,66
2019-01-21T18:12:57.293Z,58
2019-01-21T18:22:16.887Z,54
2019-01-21T18:32:26.132Z,46
2019-01-21T18:42:33.228Z,44
2019-01-21T18:52:38.435Z,44
2019-01-21T19:02:47.528Z,46
2019-01-21T19:12:55.919Z,44
2019-01-21T19:23:04.636Z,44
2019-01-21T19:33:09.987Z,43
2019-01-21T19:43:15.505Z,41
2019-01-21T19:53:25.509Z,45
2019-01-21T20:03:33.668Z,43
2019-01-21T20:13:39.954Z,63
2019-01-21T20:23:47.455Z,50
2019-01-21T20:33:54.495Z,48
2019-01-21T20:44:01.097Z,47
2019-01-21T20:54:08.246Z,47
2019-01-21T21:04:15.449Z,48
2019-01-21T21:14:26.420Z,55
2019-01-21T21:24:34.577Z,57
2019-01-21T21:34:41.433Z,52
2019-01-21T21:44:52.648Z,54
2019-01-21T21:53:07.077Z,52
2019-01-21T22:03:14.929Z,56
2019-01-21T22:13:22.268Z,54
2019-01-21T22:23:31.562Z,57
2019-01-21T22:33:38.581Z,60
2019-01-21T22:43:48.108Z,59
2019-01-21T22:53:52.551Z,63
2019-01-21T23:04:00.429Z,64
2019-01-21T23:14:05.403Z,69
2019-01-21T23:24:13.324Z,60
2019-01-21T23:34:19.772Z,59
2019-01-21T23:44:26.716Z,53
2019-01-21T23:54:31.311Z,62
